createdAt,value
2018-04-29T00:04:02.461Z,99.90
2018-04-29T00:09:04.452Z,99.90
2018-04-29T00:14:05.462Z,99.90
2018-04-29T00:19:06.463Z,99.90
2018-04-29T00:24:07.467Z,99.90
2018-04-29T00:29:08.458Z,99.90
2018-04-29T00:34:10.205Z,99.90
2018-04-29T00:39:11.200Z,99.90
2018-04-29T00:44:12.938Z,99.90
2018-04-29T00:49:13.953Z,99.90
2018-04-29T00:54:14.961Z,99.90
2018-04-29T00:59:15.971Z,99.90
2018-04-29T01:04:16.966Z,99.90
2018-04-29T01:09:17.961Z,99.90
2018-04-29T01:14:19.731Z,99.90
2018-04-29T01:19:21.470Z,99.90
2018-04-29T01:24:22.481Z,99.90
2018-04-29T01:29:23.485Z,99.90
2018-04-29T01:34:24.497Z,99.90
2018-04-29T01:39:25.532Z,99.90
2018-04-29T01:44:26.529Z,99.90
2018-04-29T01:49:27.537Z,99.90
2018-04-29T01:54:28.528Z,99.90
2018-04-29T01:59:29.525Z,99.90
2018-04-29T02:04:30.541Z,99.90
2018-04-29T02:09:32.261Z,99.90
2018-04-29T02:14:33.253Z,99.90
2018-04-29T02:19:35.026Z,99.90
2018-04-29T02:24:36.778Z,99.90
2018-04-29T02:29:37.782Z,99.90
2018-04-29T02:34:38.770Z,99.90
2018-04-29T02:39:39.754Z,99.90
2018-04-29T02:44:40.754Z,99.90
2018-04-29T02:49:41.741Z,99.90
2018-04-29T02:54:42.742Z,99.90
2018-04-29T02:59:43.744Z,99.90
2018-04-29T03:04:44.741Z,99.90
2018-04-29T03:09:45.725Z,99.90
2018-04-29T03:14:47.454Z,99.90
2018-04-29T03:19:48.474Z,99.90
2018-04-29T03:24:49.490Z,99.90
2018-04-29T03:29:50.512Z,99.90
2018-04-29T03:34:51.502Z,99.90
2018-04-29T03:39:52.493Z,99.90
2018-04-29T03:44:54.234Z,99.90
2018-04-29T03:49:55.244Z,99.90
2018-04-29T03:54:56.258Z,99.90
2018-04-29T04:00:09.664Z,99.90
2018-04-29T04:05:10.658Z,99.90
2018-04-29T04:10:11.649Z,99.90
2018-04-29T04:15:12.730Z,99.90
2018-04-29T04:20:13.749Z,99.90
2018-04-29T04:25:14.736Z,99.90
2018-04-29T04:30:15.750Z,99.90
2018-04-29T04:35:16.750Z,99.90
2018-04-29T04:40:17.757Z,99.90
2018-04-29T04:45:18.749Z,99.90
2018-04-29T04:50:20.473Z,99.90
2018-04-29T04:55:21.468Z,99.90
2018-04-29T05:00:22.457Z,99.90
2018-04-29T05:05:23.449Z,99.90
2018-04-29T05:10:24.469Z,99.90
2018-04-29T05:15:25.448Z,99.90
2018-04-29T05:20:26.439Z,99.90
2018-04-29T05:25:27.441Z,99.90
2018-04-29T05:30:28.437Z,99.90
2018-04-29T05:35:29.441Z,99.90
2018-04-29T05:40:30.414Z,99.90
2018-04-29T05:45:31.405Z,99.90
2018-04-29T05:50:32.417Z,99.90
2018-04-29T05:55:34.193Z,99.90
2018-04-29T06:00:35.194Z,99.90
2018-04-29T06:05:36.197Z,99.90
2018-04-29T06:10:38.010Z,99.90
2018-04-29T06:15:39.068Z,99.90
2018-04-29T06:20:41.703Z,99.90
2018-04-29T06:25:42.713Z,99.90
2018-04-29T06:30:43.702Z,99.90
2018-04-29T06:35:44.730Z,99.90
2018-04-29T06:40:45.737Z,99.90
2018-04-29T06:45:46.764Z,99.90
2018-04-29T06:50:47.785Z,99.90
2018-04-29T06:55:48.774Z,99.90
2018-04-29T07:00:49.786Z,99.90
2018-04-29T07:05:50.770Z,99.90
2018-04-29T07:10:51.762Z,99.90
2018-04-29T07:15:52.734Z,99.90
2018-04-29T07:20:53.738Z,99.90
2018-04-29T07:25:54.733Z,99.90
2018-04-29T07:30:55.757Z,99.90
2018-04-29T07:35:56.753Z,99.90
2018-04-29T07:40:57.748Z,99.90
2018-04-29T07:45:59.483Z,99.90
2018-04-29T07:51:00.478Z,99.90
2018-04-29T07:56:02.232Z,99.90
2018-04-29T08:01:03.241Z,99.90
2018-04-29T08:06:04.260Z,99.90
2018-04-29T08:11:11.421Z,99.90
2018-04-29T08:16:12.405Z,99.90
2018-04-29T08:21:13.425Z,99.90
2018-04-29T08:26:14.443Z,99.90
2018-04-29T08:31:15.434Z,99.90
2018-04-29T08:36:16.476Z,99.90
2018-04-29T08:41:18.217Z,99.90
2018-04-29T08:46:19.241Z,99.90
2018-04-29T08:51:20.277Z,99.90
2018-04-29T08:56:21.284Z,99.90
2018-04-29T09:01:22.322Z,93.00
2018-04-29T09:06:23.771Z,95.70
2018-04-29T09:11:24.777Z,99.00
2018-04-29T09:16:25.810Z,99.90
2018-04-29T09:21:26.827Z,99.90
2018-04-29T09:26:28.583Z,85.10
2018-04-29T09:31:30.346Z,86.70
2018-04-29T09:36:31.814Z,86.80
2018-04-29T09:41:32.840Z,83.60
2018-04-29T09:46:33.870Z,87.50
2018-04-29T09:51:34.859Z,92.40
2018-04-29T09:56:35.854Z,91.90
2018-04-29T10:01:37.601Z,86.30
2018-04-29T10:06:38.605Z,86.10
2018-04-29T10:11:40.350Z,79.30
2018-04-29T10:16:41.344Z,79.40
2018-04-29T10:21:42.317Z,79.40
2018-04-29T10:26:43.301Z,78.40
2018-04-29T10:31:44.285Z,79.20
2018-04-29T10:36:45.278Z,73.30
2018-04-29T10:41:46.283Z,78.30
2018-04-29T10:46:47.273Z,78.90
2018-04-29T10:51:49.014Z,76.00
2018-04-29T10:56:49.997Z,76.00
2018-04-29T11:01:51.750Z,74.90
2018-04-29T11:06:52.737Z,74.70
2018-04-29T11:11:54.491Z,72.00
2018-04-29T11:16:55.502Z,71.90
2018-04-29T11:21:56.511Z,72.80
2018-04-29T11:26:57.509Z,71.70
2018-04-29T11:31:58.515Z,74.40
2018-04-29T11:36:59.518Z,73.20
2018-04-29T11:42:00.531Z,73.10
2018-04-29T11:47:01.525Z,71.20
2018-04-29T11:52:02.531Z,72.50
2018-04-29T11:57:03.543Z,70.00
2018-04-29T12:02:05.321Z,70.40
2018-04-29T12:07:06.313Z,70.30
2018-04-29T12:12:07.316Z,70.50
2018-04-29T12:17:09.050Z,68.10
2018-04-29T12:22:10.134Z,68.10
2018-04-29T12:27:11.786Z,66.80
2018-04-29T12:32:12.783Z,66.70
2018-04-29T12:37:14.515Z,67.20
2018-04-29T12:42:15.514Z,67.20
2018-04-29T12:47:17.242Z,66.80
2018-04-29T12:52:18.325Z,66.50
2018-04-29T12:57:19.986Z,64.50
2018-04-29T13:02:20.983Z,64.40
2018-04-29T13:07:22.725Z,63.60
2018-04-29T13:12:23.727Z,63.50
2018-04-29T13:17:24.724Z,63.90
2018-04-29T13:22:25.708Z,62.60
2018-04-29T13:27:26.687Z,62.30
2018-04-29T13:32:27.677Z,63.60
2018-04-29T13:37:28.696Z,62.20
2018-04-29T13:42:30.430Z,63.40
2018-04-29T13:47:31.430Z,63.30
2018-04-29T13:52:33.204Z,60.00
2018-04-29T13:57:34.941Z,60.10
2018-04-29T14:02:35.957Z,60.00
2018-04-29T14:07:36.945Z,58.30
2018-04-29T14:12:38.082Z,59.20
2018-04-29T14:17:38.998Z,59.60
2018-04-29T14:22:40.015Z,59.50
2018-04-29T14:27:41.005Z,57.40
2018-04-29T14:32:41.985Z,58.10
2018-04-29T14:37:43.723Z,59.60
2018-04-29T14:42:44.714Z,59.60
2018-04-29T14:47:46.470Z,59.60
2018-04-29T14:52:47.461Z,59.50
2018-04-29T14:57:49.211Z,60.30
2018-04-29T15:02:50.201Z,60.20
2018-04-29T15:07:51.199Z,60.30
2018-04-29T15:12:52.183Z,60.90
2018-04-29T15:17:53.188Z,60.80
2018-04-29T15:22:54.178Z,62.10
2018-04-29T15:27:55.158Z,62.50
2018-04-29T15:32:56.140Z,63.60
2018-04-29T15:37:57.169Z,63.10
2018-04-29T15:42:58.169Z,62.70
2018-04-29T15:47:59.174Z,63.20
2018-04-29T15:53:00.175Z,64.10
2018-04-29T15:58:01.217Z,64.70
2018-04-29T16:03:02.178Z,64.50
2018-04-29T16:08:03.916Z,63.80
2018-04-29T16:13:04.918Z,63.70
2018-04-29T16:18:05.945Z,63.40
2018-04-29T16:23:06.930Z,64.00
2018-04-29T16:28:07.913Z,63.20
2018-04-29T16:33:08.929Z,62.90
2018-04-29T16:38:10.756Z,64.30
2018-04-29T16:43:11.644Z,64.30
2018-04-29T16:48:12.671Z,64.90
2018-04-29T16:53:13.722Z,64.30
2018-04-29T16:58:14.745Z,64.50
2018-04-29T17:03:16.488Z,64.80
2018-04-29T17:08:17.510Z,64.70
2018-04-29T17:13:18.535Z,64.10
2018-04-29T17:18:20.277Z,63.80
2018-04-29T17:23:21.273Z,63.70
2018-04-29T17:28:22.269Z,63.70
2018-04-29T17:33:23.276Z,63.00
2018-04-29T17:38:25.021Z,63.20
2018-04-29T17:43:26.021Z,63.00
2018-04-29T17:48:27.050Z,63.10
2018-04-29T17:53:28.054Z,63.70
2018-04-29T17:58:29.084Z,62.50
2018-04-29T18:03:30.822Z,63.10
2018-04-29T18:08:31.825Z,63.00
2018-04-29T18:13:33.559Z,65.90
2018-04-29T18:18:34.562Z,65.80
2018-04-29T18:23:35.546Z,66.50
2018-04-29T18:28:36.547Z,66.70
2018-04-29T18:33:38.303Z,68.90
2018-04-29T18:38:39.320Z,68.70
2018-04-29T18:43:40.349Z,69.00
2018-04-29T18:48:42.203Z,69.20
2018-04-29T18:53:43.585Z,69.20
2018-04-29T18:58:44.570Z,70.40
2018-04-29T19:03:45.578Z,71.30
2018-04-29T19:08:46.566Z,71.90
2018-04-29T19:13:48.293Z,72.70
2018-04-29T19:18:49.269Z,72.60
2018-04-29T19:23:50.299Z,72.40
2018-04-29T19:28:51.993Z,67.80
2018-04-29T19:33:52.970Z,67.70
2018-04-29T19:38:53.954Z,65.20
2018-04-29T19:43:55.749Z,60.50
2018-04-29T19:48:56.728Z,60.40
2018-04-29T19:53:57.730Z,57.70
2018-04-29T19:58:58.725Z,56.90
2018-04-29T20:03:59.734Z,54.60
2018-04-29T20:09:00.739Z,53.70
2018-04-29T20:14:01.760Z,53.20
2018-04-29T20:19:03.512Z,52.70
2018-04-29T20:24:04.522Z,52.70
2018-04-29T20:29:05.531Z,52.00
2018-04-29T20:34:06.538Z,52.50
2018-04-29T20:39:07.546Z,50.40
2018-04-29T20:44:08.604Z,49.60
2018-04-29T20:49:09.539Z,50.20
2018-04-29T20:54:10.546Z,48.00
2018-04-29T20:59:12.293Z,48.60
2018-04-29T21:04:13.289Z,48.50
2018-04-29T21:09:14.999Z,45.30
2018-04-29T21:14:16.017Z,45.10
2018-04-29T21:19:17.845Z,45.80
2018-04-29T21:24:18.834Z,45.80
2018-04-29T21:29:20.576Z,44.50
2018-04-29T21:34:21.553Z,44.50
2018-04-29T21:39:22.571Z,43.80
2018-04-29T21:44:23.558Z,43.70
2018-04-29T21:49:24.573Z,42.30
2018-04-29T21:54:25.574Z,41.30
2018-04-29T21:59:26.594Z,40.90
2018-04-29T22:04:27.598Z,41.10
2018-04-29T22:09:28.595Z,41.20
2018-04-29T22:14:29.590Z,40.10
2018-04-29T22:19:30.615Z,39.50
2018-04-29T22:24:31.618Z,40.90
2018-04-29T22:29:32.620Z,40.80
2018-04-29T22:34:34.347Z,41.10
2018-04-29T22:39:35.346Z,41.10
2018-04-29T22:44:37.081Z,40.90
2018-04-29T22:49:38.078Z,40.80
2018-04-29T22:54:39.798Z,39.00
2018-04-29T22:59:40.795Z,39.00
2018-04-29T23:04:41.799Z,38.10
2018-04-29T23:09:42.773Z,38.90
2018-04-29T23:14:43.774Z,38.70
2018-04-29T23:19:45.515Z,43.90
2018-04-29T23:24:46.507Z,43.90
2018-04-29T23:29:48.234Z,69.80
2018-04-29T23:34:49.237Z,69.80
2018-04-29T23:39:50.986Z,77.00
2018-04-29T23:44:51.985Z,77.00
2018-04-29T23:49:53.033Z,76.80
2018-04-29T23:54:54.788Z,76.90
2018-04-29T23:59:55.791Z,76.90
